Time;durP1;ratioP1;P1;durP2;ratioP2;P2;SDS_P1;SDS_P2;PMS_P1;PMS_P2;Temp;Humidity;BMP_temperature;BMP_pressure;BME280_temperature;BME280_humidity;BME280_pressure;Samples;Min_cycle;Max_cycle;Signal;HPM_P1;HPM_P2
2023/10/11 00:00:57;;;;;;;9.70;5.30;;;;;;;;;;5075513;28;20417;-89
2023/10/11 00:03:32;;;;;;;7.80;5.60;;;;;;;;;;5057097;28;21206;-86
2023/10/11 00:05:59;;;;;;;10.00;5.40;;;;;;;;;;5079924;28;20772;-89
2023/10/11 00:08:35;;;;;;;8.53;6.00;;;;;;;;;;5074062;28;20907;-90
2023/10/11 00:11:01;;;;;;;11.87;4.80;;;;;;;;;;5074056;28;20418;-88
2023/10/11 00:13:32;;;;;;;11.27;5.47;;;;;;;;;;5056548;28;20420;-85
2023/10/11 00:15:58;;;;;;;10.93;4.90;;;;;;;;;;5073701;28;20438;-93
2023/10/11 00:18:30;;;;;;;10.57;5.03;;;;;;;;;;5073274;28;20774;-92
2023/10/11 00:20:59;;;;;;;8.50;5.03;;;;;;;;;;5056027;28;20199;-91
2023/10/11 00:23:26;;;;;;;9.20;5.77;;;;;;;;;;5073823;28;20495;-88
2023/10/11 00:25:54;;;;;;;8.50;4.23;;;;;;;;;;5076517;28;20516;-87
2023/10/11 00:28:24;;;;;;;14.20;4.90;;;;;;;;;;5079017;28;20474;-89
2023/10/11 00:30:57;;;;;;;7.73;5.30;;;;;;;;;;5077947;28;20413;-88
2023/10/11 00:33:23;;;;;;;7.30;4.67;;;;;;;;;;5078598;28;20923;-86
2023/10/11 00:35:49;;;;;;;13.67;5.70;;;;;;;;;;5061865;28;20422;-88
2023/10/11 00:38:18;;;;;;;7.67;4.70;;;;;;;;;;5060834;28;20418;-93
2023/10/11 00:40:44;;;;;;;8.73;4.43;;;;;;;;;;5050476;28;20414;-91
2023/10/11 00:43:14;;;;;;;6.50;3.70;;;;;;;;;;5054572;28;20933;-90
2023/10/11 00:45:41;;;;;;;9.77;4.60;;;;;;;;;;5074438;28;20502;-87
2023/10/11 00:48:10;;;;;;;11.73;4.90;;;;;;;;;;5054511;28;20478;-94
2023/10/11 00:50:36;;;;;;;6.60;4.70;;;;;;;;;;5066439;28;20414;-93
2023/10/11 00:53:03;;;;;;;9.60;4.80;;;;;;;;;;5068404;28;20418;-92
2023/10/11 00:55:29;;;;;;;5.73;4.57;;;;;;;;;;5057482;28;20436;-87
2023/10/11 00:57:59;;;;;;;7.13;4.53;;;;;;;;;;5072580;28;20418;-91
2023/10/11 01:00:25;;;;;;;7.70;5.43;;;;;;;;;;5071045;28;20417;-89
2023/10/11 01:02:53;;;;;;;5.77;3.57;;;;;;;;;;5069266;28;20490;-90
2023/10/11 01:05:19;;;;;;;8.70;5.23;;;;;;;;;;5070040;28;20414;-91
2023/10/11 01:07:45;;;;;;;7.40;4.27;;;;;;;;;;5091014;22;20565;-90
2023/10/11 01:10:12;;;;;;;10.67;4.87;;;;;;;;;;5087177;28;20441;-96
2023/10/11 01:12:40;;;;;;;7.40;4.40;;;;;;;;;;5064221;28;20454;-91
2023/10/11 01:15:11;;;;;;;6.50;4.80;;;;;;;;;;5068218;28;20418;-91
2023/10/11 01:17:38;;;;;;;9.07;4.87;;;;;;;;;;5064935;28;20413;-93
2023/10/11 01:20:06;;;;;;;8.80;4.37;;;;;;;;;;5068308;28;20418;-94
2023/10/11 01:22:34;;;;;;;9.23;5.90;;;;;;;;;;5085390;28;20410;-94
2023/10/11 01:25:01;;;;;;;8.70;5.57;;;;;;;;;;5086084;28;20405;-94
2023/10/11 01:27:30;;;;;;;10.67;5.20;;;;;;;;;;5087575;28;20519;-84
2023/10/11 01:29:57;;;;;;;11.40;5.07;;;;;;;;;;5078295;28;20409;-93
2023/10/11 01:32:23;;;;;;;9.70;4.40;;;;;;;;;;5080216;28;20478;-94
2023/10/11 01:34:49;;;;;;;6.90;3.70;;;;;;;;;;5080824;28;20416;-93
2023/10/11 01:37:17;;;;;;;9.60;4.13;;;;;;;;;;5070653;28;20455;-90
2023/10/11 01:39:43;;;;;;;8.70;5.07;;;;;;;;;;5085753;28;20410;-93
2023/10/11 01:42:09;;;;;;;9.47;5.37;;;;;;;;;;5081739;28;20432;-84
2023/10/11 01:44:36;;;;;;;9.10;4.90;;;;;;;;;;5081027;28;20199;-92
2023/10/11 01:47:03;;;;;;;10.53;5.23;;;;;;;;;;5081135;28;20473;-93
2023/10/11 01:49:29;;;;;;;9.43;4.23;;;;;;;;;;5077397;28;20466;-94
2023/10/11 01:51:55;;;;;;;5.07;3.37;;;;;;;;;;5077251;28;20967;-93
2023/10/11 01:54:22;;;;;;;8.30;4.40;;;;;;;;;;5059085;28;20413;-94
2023/10/11 01:56:48;;;;;;;9.37;4.87;;;;;;;;;;5062383;28;20417;-94
2023/10/11 01:59:15;;;;;;;8.00;4.70;;;;;;;;;;5060066;28;20456;-89
2023/10/11 02:01:43;;;;;;;9.30;5.03;;;;;;;;;;5077313;28;20409;-94
2023/10/11 02:04:20;;;;;;;7.80;4.40;;;;;;;;;;5079730;28;20467;-94
2023/10/11 02:06:47;;;;;;;6.17;3.63;;;;;;;;;;5083643;28;20473;-93
2023/10/11 02:09:13;;;;;;;8.20;4.00;;;;;;;;;;5083183;28;20413;-94
2023/10/11 02:11:42;;;;;;;7.67;3.60;;;;;;;;;;5063678;28;20410;-94
2023/10/11 02:14:09;;;;;;;11.27;4.70;;;;;;;;;;5082230;28;20480;-94
2023/10/11 02:16:36;;;;;;;10.43;5.63;;;;;;;;;;5066150;28;20554;-86
2023/10/11 02:19:02;;;;;;;9.07;4.53;;;;;;;;;;5092532;23;20495;-94
2023/10/11 02:21:29;;;;;;;8.13;4.33;;;;;;;;;;5109404;28;20411;-94
2023/10/11 02:23:56;;;;;;;10.37;5.00;;;;;;;;;;5104189;28;20921;-85
2023/10/11 02:26:31;;;;;;;9.73;4.90;;;;;;;;;;5103455;28;20400;-85
2023/10/11 02:29:00;;;;;;;10.47;3.90;;;;;;;;;;5109570;28;20415;-88
2023/10/11 02:31:28;;;;;;;8.33;4.60;;;;;;;;;;5111246;28;20513;-95
2023/10/11 02:34:04;;;;;;;7.80;4.17;;;;;;;;;;5107355;28;20454;-91
2023/10/11 02:36:35;;;;;;;8.80;4.57;;;;;;;;;;5089418;28;20416;-95
2023/10/11 02:39:05;;;;;;;9.10;5.00;;;;;;;;;;5082510;28;20469;-95
2023/10/11 02:41:31;;;;;;;6.73;4.90;;;;;;;;;;5101384;28;20403;-94
2023/10/11 02:43:57;;;;;;;11.40;4.70;;;;;;;;;;5089037;28;20519;-93
2023/10/11 02:46:24;;;;;;;7.83;4.53;;;;;;;;;;5083347;28;20255;-92
2023/10/11 02:49:04;;;;;;;11.03;5.03;;;;;;;;;;5082690;28;20443;-93
2023/10/11 02:51:32;;;;;;;10.10;5.53;;;;;;;;;;5083607;28;21101;-94
2023/10/11 02:53:58;;;;;;;9.90;6.03;;;;;;;;;;5080043;28;20420;-90
2023/10/11 02:56:24;;;;;;;8.90;5.00;;;;;;;;;;5101349;28;20432;-93
2023/10/11 02:58:52;;;;;;;12.70;5.40;;;;;;;;;;5102737;28;20404;-94
2023/10/11 03:01:20;;;;;;;8.70;6.27;;;;;;;;;;5084760;28;20188;-93
2023/10/11 03:03:47;;;;;;;7.50;4.77;;;;;;;;;;5097023;28;20400;-92
2023/10/11 03:06:13;;;;;;;11.20;5.03;;;;;;;;;;5078149;28;20424;-94
2023/10/11 03:08:43;;;;;;;12.60;6.80;;;;;;;;;;5090802;28;20434;-94
2023/10/11 03:11:15;;;;;;;13.63;5.27;;;;;;;;;;5088274;28;20447;-92
2023/10/11 03:13:44;;;;;;;8.30;4.70;;;;;;;;;;5099665;28;20412;-92
2023/10/11 03:16:13;;;;;;;9.60;5.00;;;;;;;;;;5077133;28;20413;-94
2023/10/11 03:18:40;;;;;;;11.13;6.60;;;;;;;;;;5094854;28;20560;-91
2023/10/11 03:21:16;;;;;;;10.00;5.40;;;;;;;;;;5094633;28;20404;-92
2023/10/11 03:23:46;;;;;;;9.47;5.33;;;;;;;;;;5094488;28;20415;-93
2023/10/11 03:26:22;;;;;;;9.03;5.70;;;;;;;;;;5094278;28;20952;-93
2023/10/11 03:28:57;;;;;;;8.53;5.00;;;;;;;;;;5094724;28;20400;-90
2023/10/11 03:31:28;;;;;;;9.53;5.00;;;;;;;;;;5093646;28;20404;-90
2023/10/11 03:33:54;;;;;;;11.90;5.70;;;;;;;;;;5076072;28;20908;-90
2023/10/11 03:36:28;;;;;;;8.70;5.40;;;;;;;;;;5094038;28;20877;-90
2023/10/11 03:38:54;;;;;;;13.37;5.73;;;;;;;;;;5077368;28;20429;-90
2023/10/11 03:41:29;;;;;;;9.13;4.93;;;;;;;;;;5076456;28;20405;-92
2023/10/11 03:44:00;;;;;;;10.63;5.63;;;;;;;;;;5094459;28;20416;-93
2023/10/11 03:46:28;;;;;;;8.13;5.17;;;;;;;;;;5095740;28;20837;-94
2023/10/11 03:49:02;;;;;;;10.90;5.47;;;;;;;;;;5097001;28;20798;-92
2023/10/11 03:51:28;;;;;;;10.90;4.90;;;;;;;;;;5096047;28;20412;-93
2023/10/11 03:53:54;;;;;;;13.33;6.60;;;;;;;;;;5080349;28;20948;-87
2023/10/11 03:56:20;;;;;;;8.80;4.67;;;;;;;;;;5080056;28;20410;-95
2023/10/11 03:58:50;;;;;;;10.70;5.30;;;;;;;;;;5096406;28;20418;-92
2023/10/11 04:03:45;;;;;;;9.63;5.83;;;;;;;;;;5101761;28;20855;-95
2023/10/11 04:06:15;;;;;;;9.77;6.17;;;;;;;;;;5081656;28;20515;-91
2023/10/11 04:08:42;;;;;;;7.20;5.40;;;;;;;;;;5103219;28;20420;-92
2023/10/11 04:11:19;;;;;;;9.37;6.80;;;;;;;;;;5107152;28;20412;-94
2023/10/11 04:13:46;;;;;;;8.70;5.50;;;;;;;;;;5106627;28;20412;-95
2023/10/11 04:16:13;;;;;;;8.67;5.70;;;;;;;;;;5100898;28;20403;-92
2023/10/11 04:18:39;;;;;;;7.80;5.40;;;;;;;;;;5098504;28;20462;-86
2023/10/11 04:23:36;;;;;;;12.87;5.87;;;;;;;;;;5099233;28;20428;-91
2023/10/11 04:26:21;;;;;;;13.50;7.13;;;;;;;;;;5081304;28;20413;-90
2023/10/11 04:28:51;;;;;;;10.50;5.80;;;;;;;;;;5108318;28;20432;-93
2023/10/11 04:31:36;;;;;;;9.67;5.40;;;;;;;;;;5101735;28;20413;-91
2023/10/11 04:34:11;;;;;;;8.80;4.73;;;;;;;;;;5100929;28;20887;-91
2023/10/11 04:36:42;;;;;;;9.40;4.67;;;;;;;;;;5098185;28;20396;-92
2023/10/11 04:39:15;;;;;;;7.80;4.83;;;;;;;;;;5097873;28;20400;-92
2023/10/11 04:41:50;;;;;;;10.17;5.50;;;;;;;;;;5101002;28;20893;-90
2023/10/11 04:44:17;;;;;;;8.60;5.47;;;;;;;;;;5102112;28;20420;-91
2023/10/11 04:46:44;;;;;;;7.23;5.60;;;;;;;;;;5103803;28;20468;-90
2023/10/11 04:49:21;;;;;;;9.03;5.50;;;;;;;;;;5098851;28;20437;-89
2023/10/11 04:51:47;;;;;;;7.90;4.90;;;;;;;;;;5097664;28;20418;-91
2023/10/11 04:54:14;;;;;;;8.30;6.03;;;;;;;;;;5101510;28;20410;-92
2023/10/11 05:02:08;;;;;;;8.03;4.97;;;;;;;;;;5097243;28;20415;-89
2023/10/11 05:04:34;;;;;;;6.43;4.83;;;;;;;;;;5101172;28;20443;-90
2023/10/11 05:07:07;;;;;;;6.53;4.87;;;;;;;;;;5107636;22;20488;-94
2023/10/11 05:09:40;;;;;;;8.90;5.30;;;;;;;;;;5083766;28;20478;-88
2023/10/11 05:12:12;;;;;;;7.50;5.63;;;;;;;;;;5069903;28;20412;-94
2023/10/11 05:22:15;;;;;;;11.30;6.57;;;;;;;;;;5099865;22;20566;-93
2023/10/11 05:25:12;;;;;;;8.47;5.50;;;;;;;;;;5112069;28;20166;-89
2023/10/11 05:32:49;;;;;;;12.23;6.30;;;;;;;;;;5100586;28;20489;-93
2023/10/11 05:35:43;;;;;;;10.77;5.00;;;;;;;;;;5080978;28;20412;-91
2023/10/11 05:51:52;;;;;;;11.10;5.70;;;;;;;;;;5114114;22;20399;-87
2023/10/11 05:54:20;;;;;;;9.77;5.27;;;;;;;;;;5067853;28;20438;-91
2023/10/11 05:56:47;;;;;;;7.43;6.00;;;;;;;;;;5140426;22;20483;-94
2023/10/11 05:59:14;;;;;;;8.47;5.60;;;;;;;;;;5108722;28;20784;-91
2023/10/11 06:01:43;;;;;;;9.67;4.83;;;;;;;;;;5088762;28;20417;-88
2023/10/11 06:04:13;;;;;;;8.20;5.50;;;;;;;;;;5080532;28;20412;-85
2023/10/11 06:06:42;;;;;;;9.47;4.80;;;;;;;;;;5079320;28;20464;-85
2023/10/11 06:09:16;;;;;;;9.27;5.80;;;;;;;;;;5099566;28;20403;-86
2023/10/11 06:11:47;;;;;;;12.13;5.18;;;;;;;;;;5098681;28;20503;-91
2023/10/11 06:14:16;;;;;;;9.63;4.90;;;;;;;;;;5106839;28;20591;-94
2023/10/11 06:16:43;;;;;;;10.37;5.83;;;;;;;;;;5083242;28;20413;-91
2023/10/11 06:19:16;;;;;;;9.17;5.73;;;;;;;;;;5106524;28;20418;-92
2023/10/11 06:21:58;;;;;;;11.93;5.47;;;;;;;;;;5098651;28;20420;-92
2023/10/11 06:24:33;;;;;;;10.57;6.03;;;;;;;;;;5104273;28;20421;-95
2023/10/11 06:29:53;;;;;;;11.67;6.33;;;;;;;;;;5105514;28;20440;-93
2023/10/11 06:32:19;;;;;;;9.93;7.53;;;;;;;;;;5103086;28;20420;-95
2023/10/11 06:34:50;;;;;;;10.90;6.23;;;;;;;;;;5115995;28;20927;-86
2023/10/11 06:37:18;;;;;;;11.00;5.53;;;;;;;;;;5123989;28;20783;-94
2023/10/11 06:42:14;;;;;;;11.07;5.40;;;;;;;;;;5120110;28;20409;-95
2023/10/11 06:44:47;;;;;;;10.13;5.47;;;;;;;;;;5124801;28;20200;-93
2023/10/11 06:47:18;;;;;;;13.63;5.23;;;;;;;;;;5123566;28;20464;-95
2023/10/11 06:49:44;;;;;;;6.67;4.50;;;;;;;;;;5119215;28;20402;-93
2023/10/11 06:52:11;;;;;;;6.70;4.27;;;;;;;;;;5099706;28;20768;-90
2023/10/11 06:54:45;;;;;;;10.50;6.10;;;;;;;;;;5075223;28;20427;-90
2023/10/11 06:57:12;;;;;;;7.43;5.03;;;;;;;;;;5080017;28;20461;-95
2023/10/11 06:59:41;;;;;;;8.60;5.13;;;;;;;;;;5076111;28;20412;-93
2023/10/11 07:02:17;;;;;;;7.70;4.57;;;;;;;;;;5078828;28;20432;-93
2023/10/11 07:04:50;;;;;;;8.50;4.60;;;;;;;;;;5081748;28;20401;-95
2023/10/11 07:07:16;;;;;;;6.57;4.60;;;;;;;;;;5079506;28;20488;-94
2023/10/11 07:09:56;;;;;;;12.93;5.60;;;;;;;;;;5080201;28;20773;-93
2023/10/11 07:12:40;;;;;;;8.00;4.60;;;;;;;;;;5081279;28;20400;-94
2023/10/11 07:15:09;;;;;;;12.50;5.47;;;;;;;;;;5085280;28;20921;-95
2023/10/11 07:17:36;;;;;;;7.23;3.93;;;;;;;;;;5086029;28;20413;-91
2023/10/11 07:20:16;;;;;;;11.63;5.07;;;;;;;;;;5083303;28;20517;-94
2023/10/11 07:22:45;;;;;;;8.40;4.23;;;;;;;;;;5078632;28;20400;-95
2023/10/11 07:25:36;;;;;;;9.27;4.67;;;;;;;;;;5076286;28;20410;-86
2023/10/11 07:28:03;;;;;;;8.40;4.60;;;;;;;;;;5074632;28;20466;-93
2023/10/11 07:30:37;;;;;;;9.53;4.70;;;;;;;;;;5074400;28;20412;-93
2023/10/11 07:33:04;;;;;;;7.20;3.60;;;;;;;;;;5073380;28;20441;-87
2023/10/11 07:35:30;;;;;;;8.37;4.23;;;;;;;;;;5073399;28;20410;-88
2023/10/11 07:37:56;;;;;;;7.53;5.80;;;;;;;;;;5074455;28;20413;-88
2023/10/11 07:40:33;;;;;;;9.00;5.47;;;;;;;;;;5074390;28;20421;-86
2023/10/11 07:43:00;;;;;;;6.37;4.50;;;;;;;;;;5074124;28;20401;-85
2023/10/11 07:45:26;;;;;;;9.00;5.97;;;;;;;;;;5073707;28;20413;-86
2023/10/11 07:47:52;;;;;;;10.83;5.87;;;;;;;;;;5073299;28;20512;-84
2023/10/11 07:50:24;;;;;;;12.93;5.13;;;;;;;;;;5074042;28;20434;-87
2023/10/11 07:52:51;;;;;;;7.07;4.60;;;;;;;;;;5074920;28;20420;-86
2023/10/11 07:55:17;;;;;;;9.87;5.43;;;;;;;;;;5074219;28;20978;-85
2023/10/11 07:57:46;;;;;;;10.20;6.47;;;;;;;;;;5074446;28;20396;-91
2023/10/11 08:00:18;;;;;;;9.63;5.60;;;;;;;;;;5075848;28;20413;-89
2023/10/11 08:03:03;;;;;;;10.27;5.93;;;;;;;;;;5074250;28;20403;-88
2023/10/11 08:05:29;;;;;;;7.90;5.00;;;;;;;;;;5076222;28;20552;-89
2023/10/11 08:07:55;;;;;;;9.70;5.50;;;;;;;;;;5075714;28;20470;-88
2023/10/11 08:10:34;;;;;;;12.37;5.30;;;;;;;;;;5075154;28;20498;-88
2023/10/11 08:13:03;;;;;;;11.70;5.27;;;;;;;;;;5074619;28;20770;-85
2023/10/11 08:15:30;;;;;;;8.63;4.53;;;;;;;;;;5075640;28;20402;-86
2023/10/11 08:17:56;;;;;;;9.40;5.07;;;;;;;;;;5076791;28;20746;-89
2023/10/11 08:20:28;;;;;;;6.77;5.03;;;;;;;;;;5073564;28;20414;-88
2023/10/11 08:22:55;;;;;;;9.83;4.83;;;;;;;;;;5056308;28;20418;-90
2023/10/11 08:25:27;;;;;;;11.33;5.20;;;;;;;;;;5055444;28;20840;-88
2023/10/11 08:28:10;;;;;;;8.67;5.20;;;;;;;;;;5073271;28;20472;-92
2023/10/11 08:30:37;;;;;;;9.83;6.57;;;;;;;;;;5074094;28;20410;-91
2023/10/11 08:33:04;;;;;;;9.73;4.90;;;;;;;;;;5072984;28;20909;-87
2023/10/11 08:35:33;;;;;;;10.43;5.53;;;;;;;;;;5072828;28;20413;-86
2023/10/11 08:38:04;;;;;;;11.00;5.80;;;;;;;;;;5072659;28;20770;-85
2023/10/11 08:40:35;;;;;;;7.87;5.83;;;;;;;;;;5072855;28;20411;-84
2023/10/11 08:43:01;;;;;;;10.30;5.90;;;;;;;;;;5072545;28;20752;-86
2023/10/11 08:45:29;;;;;;;9.20;5.60;;;;;;;;;;5072464;28;20768;-86
2023/10/11 08:47:57;;;;;;;10.73;6.20;;;;;;;;;;5072444;28;20604;-86
2023/10/11 08:50:24;;;;;;;8.63;5.03;;;;;;;;;;5076250;28;20403;-88
2023/10/11 08:52:53;;;;;;;12.23;6.00;;;;;;;;;;5076260;28;20415;-87
2023/10/11 08:55:19;;;;;;;8.43;5.50;;;;;;;;;;5075980;28;20453;-90
2023/10/11 08:57:47;;;;;;;8.87;4.97;;;;;;;;;;5058461;28;20417;-90
2023/10/11 09:00:29;;;;;;;12.00;5.57;;;;;;;;;;5074843;28;20406;-86
2023/10/11 09:02:58;;;;;;;11.20;6.20;;;;;;;;;;5080837;28;20476;-86
2023/10/11 09:05:42;;;;;;;8.33;5.50;;;;;;;;;;5075211;28;20420;-80
2023/10/11 09:08:18;;;;;;;8.73;5.40;;;;;;;;;;5075323;28;20551;-83
2023/10/11 09:10:49;;;;;;;8.47;5.67;;;;;;;;;;5075195;28;20414;-83
2023/10/11 09:13:24;;;;;;;10.10;5.27;;;;;;;;;;5074887;28;20442;-80
2023/10/11 09:15:54;;;;;;;12.57;5.20;;;;;;;;;;5075358;28;20464;-77
2023/10/11 09:18:20;;;;;;;7.70;5.37;;;;;;;;;;5075549;28;20408;-80
2023/10/11 09:23:37;;;;;;;11.93;5.40;;;;;;;;;;5075872;28;20636;-78
2023/10/11 09:26:05;;;;;;;6.70;5.17;;;;;;;;;;5075344;28;20400;-77
2023/10/11 09:28:34;;;;;;;12.63;5.43;;;;;;;;;;5075331;28;20557;-87
2023/10/11 09:31:15;;;;;;;9.37;5.43;;;;;;;;;;5074976;28;20530;-86
2023/10/11 09:33:53;;;;;;;6.97;5.50;;;;;;;;;;5075383;28;20418;-80
2023/10/11 09:36:20;;;;;;;7.30;5.47;;;;;;;;;;5075409;28;20395;-85
2023/10/11 09:38:54;;;;;;;6.47;5.87;;;;;;;;;;5075568;28;20457;-82
2023/10/11 09:41:22;;;;;;;9.73;5.27;;;;;;;;;;5075203;28;20414;-81
2023/10/11 09:43:48;;;;;;;8.37;5.77;;;;;;;;;;5075146;28;20416;-83
2023/10/11 09:46:14;;;;;;;8.07;6.20;;;;;;;;;;5074809;28;20435;-86
2023/10/11 09:48:41;;;;;;;9.80;5.07;;;;;;;;;;5075003;28;20961;-86
2023/10/11 09:51:20;;;;;;;9.97;6.03;;;;;;;;;;5057012;28;20511;-78
2023/10/11 09:53:49;;;;;;;13.67;7.07;;;;;;;;;;5074999;28;20419;-83
2023/10/11 09:56:38;;;;;;;11.27;6.43;;;;;;;;;;5073224;28;20469;-90
2023/10/11 09:59:11;;;;;;;11.07;7.30;;;;;;;;;;5057118;28;20449;-91
2023/10/11 10:01:41;;;;;;;10.40;6.30;;;;;;;;;;5088193;28;20470;-85
2023/10/11 10:04:09;;;;;;;7.87;4.97;;;;;;;;;;5082978;28;20413;-93
2023/10/11 10:06:35;;;;;;;10.50;5.90;;;;;;;;;;5088629;28;20506;-86
2023/10/11 10:09:18;;;;;;;11.83;6.07;;;;;;;;;;5085395;28;20510;-93
2023/10/11 10:12:05;;;;;;;9.07;6.67;;;;;;;;;;5091469;28;20770;-95
2023/10/11 10:14:33;;;;;;;12.80;6.27;;;;;;;;;;5084774;28;20424;-84
2023/10/11 10:17:13;;;;;;;13.13;7.23;;;;;;;;;;5088733;28;20432;-92
2023/10/11 10:19:39;;;;;;;8.50;5.93;;;;;;;;;;5094725;28;20466;-86
2023/10/11 10:22:27;;;;;;;11.97;7.30;;;;;;;;;;5094207;28;20413;-84
2023/10/11 10:24:54;;;;;;;11.93;7.07;;;;;;;;;;5088279;28;20403;-82
2023/10/11 10:27:35;;;;;;;9.27;5.63;;;;;;;;;;5094462;28;20489;-81
2023/10/11 10:30:03;;;;;;;13.90;7.03;;;;;;;;;;5094610;28;20403;-83
2023/10/11 10:32:29;;;;;;;10.00;6.50;;;;;;;;;;5094552;28;20433;-90
2023/10/11 10:35:18;;;;;;;8.77;5.47;;;;;;;;;;5087981;28;20415;-90
2023/10/11 10:37:47;;;;;;;11.23;6.87;;;;;;;;;;5083856;28;20182;-82
2023/10/11 10:40:24;;;;;;;13.80;6.50;;;;;;;;;;5086886;28;20881;-84
2023/10/11 10:43:19;;;;;;;11.90;6.73;;;;;;;;;;5082278;28;20402;-82
2023/10/11 10:45:49;;;;;;;11.73;7.20;;;;;;;;;;5085249;28;20398;-82
2023/10/11 10:48:14;;;;;;;11.87;7.60;;;;;;;;;;5076053;28;20477;-84
2023/10/11 10:50:48;;;;;;;14.80;6.53;;;;;;;;;;5094961;28;20403;-82
2023/10/11 10:53:17;;;;;;;12.43;6.60;;;;;;;;;;5055909;28;20673;-83
2023/10/11 10:55:44;;;;;;;10.87;6.60;;;;;;;;;;5073898;28;20512;-91
2023/10/11 10:58:16;;;;;;;11.07;7.73;;;;;;;;;;5073838;28;20400;-92
2023/10/11 11:00:43;;;;;;;11.10;6.67;;;;;;;;;;5081268;28;20423;-81
2023/10/11 11:03:24;;;;;;;11.23;7.50;;;;;;;;;;5088132;28;20414;-82
2023/10/11 11:05:56;;;;;;;12.40;8.10;;;;;;;;;;5087544;28;20424;-90
2023/10/11 11:08:29;;;;;;;11.30;7.10;;;;;;;;;;5082171;28;20825;-86
2023/10/11 11:10:55;;;;;;;10.70;6.83;;;;;;;;;;5079295;28;20470;-83
2023/10/11 11:13:30;;;;;;;10.90;8.03;;;;;;;;;;5083259;28;20423;-84
2023/10/11 11:15:56;;;;;;;12.80;7.20;;;;;;;;;;5079967;28;20444;-86
2023/10/11 11:18:32;;;;;;;12.67;6.90;;;;;;;;;;5066999;28;20467;-90
2023/10/11 11:21:17;;;;;;;14.70;8.13;;;;;;;;;;5062037;28;20421;-81
2023/10/11 11:23:44;;;;;;;12.53;9.00;;;;;;;;;;5087009;28;20420;-92
2023/10/11 11:26:15;;;;;;;9.77;7.10;;;;;;;;;;5084604;28;20405;-80
2023/10/11 11:28:42;;;;;;;14.43;9.43;;;;;;;;;;5090071;28;20473;-80
2023/10/11 11:31:13;;;;;;;12.13;7.10;;;;;;;;;;5083467;28;20409;-80
2023/10/11 11:36:31;;;;;;;12.73;7.87;;;;;;;;;;5083269;28;20409;-83
2023/10/11 11:41:42;;;;;;;8.93;7.40;;;;;;;;;;5083748;28;20393;-82
2023/10/11 11:44:19;;;;;;;9.80;8.40;;;;;;;;;;5063858;28;20474;-79
2023/10/11 11:46:48;;;;;;;11.03;7.10;;;;;;;;;;5081647;28;20482;-83
2023/10/11 11:49:15;;;;;;;16.03;7.30;;;;;;;;;;5082274;28;20418;-82
2023/10/11 11:51:41;;;;;;;12.27;6.87;;;;;;;;;;5085358;28;20398;-80
2023/10/11 11:54:09;;;;;;;9.20;6.67;;;;;;;;;;5085328;28;20421;-82
2023/10/11 11:56:35;;;;;;;10.83;6.80;;;;;;;;;;5078084;28;20544;-84
2023/10/11 11:59:01;;;;;;;11.23;7.67;;;;;;;;;;5083045;28;20944;-80
2023/10/11 12:01:27;;;;;;;8.83;6.90;;;;;;;;;;5081010;28;20422;-83
2023/10/11 12:03:54;;;;;;;10.07;7.33;;;;;;;;;;5080829;28;20207;-83
2023/10/11 12:06:23;;;;;;;11.93;7.70;;;;;;;;;;5115908;22;20704;-82
2023/10/11 12:08:59;;;;;;;8.33;6.37;;;;;;;;;;5074589;28;20448;-81
2023/10/11 12:11:28;;;;;;;12.43;7.47;;;;;;;;;;5081933;28;20421;-80
2023/10/11 12:13:56;;;;;;;15.97;8.03;;;;;;;;;;5089599;28;20482;-80
2023/10/11 12:16:22;;;;;;;10.63;8.63;;;;;;;;;;5092741;28;20412;-80
2023/10/11 12:18:48;;;;;;;10.37;7.00;;;;;;;;;;5092963;28;20417;-81
2023/10/11 12:21:16;;;;;;;10.53;7.00;;;;;;;;;;5092829;28;20828;-83
2023/10/11 12:23:48;;;;;;;9.97;7.03;;;;;;;;;;5093725;28;20940;-87
2023/10/11 12:26:18;;;;;;;11.07;6.17;;;;;;;;;;5085041;28;20410;-86
2023/10/11 12:28:45;;;;;;;11.53;7.60;;;;;;;;;;5096999;28;20477;-88
2023/10/11 12:31:17;;;;;;;10.07;7.50;;;;;;;;;;5078331;28;20424;-84
2023/10/11 12:33:43;;;;;;;9.10;6.50;;;;;;;;;;5096921;28;20891;-82
2023/10/11 12:36:09;;;;;;;11.67;6.80;;;;;;;;;;5096770;28;20405;-82
2023/10/11 12:38:36;;;;;;;9.43;6.90;;;;;;;;;;5096722;28;20475;-80
2023/10/11 12:41:08;;;;;;;10.20;6.57;;;;;;;;;;5096786;28;20470;-86
2023/10/11 12:43:34;;;;;;;8.17;5.97;;;;;;;;;;5096501;28;20928;-87
2023/10/11 12:46:01;;;;;;;8.57;7.03;;;;;;;;;;5096184;28;20552;-82
2023/10/11 12:48:27;;;;;;;12.30;7.47;;;;;;;;;;5096362;28;20473;-82
2023/10/11 12:50:53;;;;;;;9.07;7.57;;;;;;;;;;5096272;28;20411;-81
2023/10/11 12:53:19;;;;;;;9.30;7.00;;;;;;;;;;5096179;28;20425;-89
2023/10/11 12:55:45;;;;;;;7.73;6.40;;;;;;;;;;5096249;28;20500;-87
2023/10/11 12:58:14;;;;;;;8.53;5.60;;;;;;;;;;5096266;28;20490;-87
2023/10/11 13:00:48;;;;;;;8.70;6.03;;;;;;;;;;5095851;28;20917;-83
2023/10/11 13:03:29;;;;;;;11.90;6.20;;;;;;;;;;5096481;28;21196;-85
2023/10/11 13:05:55;;;;;;;10.60;7.17;;;;;;;;;;5095995;28;20460;-83
2023/10/11 13:08:24;;;;;;;15.00;7.17;;;;;;;;;;5096183;28;20472;-84
2023/10/11 13:10:51;;;;;;;8.77;6.77;;;;;;;;;;5095906;28;20420;-86
2023/10/11 13:13:17;;;;;;;10.97;5.80;;;;;;;;;;5096228;28;20805;-81
2023/10/11 13:15:59;;;;;;;9.93;7.17;;;;;;;;;;5077463;28;20455;-85
2023/10/11 13:18:26;;;;;;;9.90;6.80;;;;;;;;;;5095953;28;20531;-82
2023/10/11 13:20:52;;;;;;;6.63;6.00;;;;;;;;;;5095859;28;20410;-86
2023/10/11 13:23:18;;;;;;;9.67;6.47;;;;;;;;;;5095828;28;20410;-83
2023/10/11 13:25:44;;;;;;;8.70;6.40;;;;;;;;;;5095953;28;20406;-86
2023/10/11 13:28:14;;;;;;;8.37;5.67;;;;;;;;;;5077544;28;20214;-82
2023/10/11 13:30:40;;;;;;;9.53;5.90;;;;;;;;;;5095399;28;20420;-81
2023/10/11 13:33:09;;;;;;;6.60;5.30;;;;;;;;;;5095182;28;20422;-82
2023/10/11 13:35:35;;;;;;;9.53;5.30;;;;;;;;;;5095698;28;20460;-89
2023/10/11 13:38:08;;;;;;;8.80;7.00;;;;;;;;;;5095568;28;20494;-81
2023/10/11 13:40:34;;;;;;;8.73;5.47;;;;;;;;;;5095380;28;20409;-83
2023/10/11 13:43:00;;;;;;;7.30;6.13;;;;;;;;;;5095408;28;20903;-82
2023/10/11 13:45:27;;;;;;;6.97;5.30;;;;;;;;;;5077168;28;20180;-82
2023/10/11 13:47:53;;;;;;;8.30;6.03;;;;;;;;;;5095383;28;20684;-91
2023/10/11 13:50:21;;;;;;;10.13;5.83;;;;;;;;;;5095309;28;20413;-82
2023/10/11 13:52:53;;;;;;;8.20;6.20;;;;;;;;;;5094960;28;20910;-83
2023/10/11 13:55:23;;;;;;;10.80;6.27;;;;;;;;;;5094986;28;20415;-86
2023/10/11 13:57:52;;;;;;;7.80;5.37;;;;;;;;;;5094943;28;20446;-80
2023/10/11 14:01:24;;;;;;;12.23;6.63;;;;;;;;;;5094507;28;20405;-90
2023/10/11 14:03:38;;;;;;;7.93;6.30;;;;;;;;;;5084286;28;20439;-88
2023/10/11 14:06:21;;;;;;;9.23;5.50;;;;;;;;;;5094625;28;20858;-80
2023/10/11 14:08:47;;;;;;;9.33;6.23;;;;;;;;;;5095029;28;20505;-81
2023/10/11 14:11:19;;;;;;;10.80;5.60;;;;;;;;;;5094736;28;20414;-82
2023/10/11 14:13:49;;;;;;;9.13;5.70;;;;;;;;;;5088976;28;20420;-87
2023/10/11 14:16:21;;;;;;;6.30;5.57;;;;;;;;;;5130495;22;20536;-86
2023/10/11 14:18:51;;;;;;;7.40;4.70;;;;;;;;;;5066138;28;20433;-84
2023/10/11 14:21:19;;;;;;;9.03;5.60;;;;;;;;;;5074207;28;20407;-83
2023/10/11 14:23:46;;;;;;;7.07;5.23;;;;;;;;;;5074372;28;20740;-84
2023/10/11 14:26:13;;;;;;;6.63;5.17;;;;;;;;;;5074690;28;20433;-88
2023/10/11 14:28:39;;;;;;;10.20;5.80;;;;;;;;;;5074224;28;20474;-89
2023/10/11 14:31:05;;;;;;;6.93;5.83;;;;;;;;;;5073947;28;20442;-82
2023/10/11 14:33:33;;;;;;;10.67;6.47;;;;;;;;;;5074423;28;20419;-88
2023/10/11 14:35:59;;;;;;;11.83;6.67;;;;;;;;;;5073434;28;20180;-82
2023/10/11 14:38:25;;;;;;;8.50;5.57;;;;;;;;;;5073716;28;20410;-86
2023/10/11 14:40:50;;;;;;;6.90;4.80;;;;;;;;;;5073668;28;20883;-81
2023/10/11 14:43:16;;;;;;;7.73;5.83;;;;;;;;;;5072076;28;20175;-83
2023/10/11 14:45:47;;;;;;;7.03;4.77;;;;;;;;;;5073334;28;20422;-83
2023/10/11 14:48:13;;;;;;;8.33;5.10;;;;;;;;;;5074058;28;20203;-82
2023/10/11 14:50:42;;;;;;;10.60;4.30;;;;;;;;;;5073374;28;20413;-83
2023/10/11 14:53:13;;;;;;;10.13;6.07;;;;;;;;;;5073553;28;20184;-81
2023/10/11 14:55:39;;;;;;;8.57;5.47;;;;;;;;;;5073322;28;20553;-90
2023/10/11 14:58:05;;;;;;;8.70;5.97;;;;;;;;;;5073626;28;20498;-85
2023/10/11 15:00:34;;;;;;;6.97;5.27;;;;;;;;;;5073562;28;20189;-81
2023/10/11 15:03:05;;;;;;;7.30;5.17;;;;;;;;;;5073738;28;20918;-88
2023/10/11 15:05:31;;;;;;;5.70;4.93;;;;;;;;;;5072197;28;20510;-87
2023/10/11 15:07:58;;;;;;;7.80;5.10;;;;;;;;;;5073226;28;20981;-81
2023/10/11 15:10:23;;;;;;;7.20;5.90;;;;;;;;;;5073236;28;20421;-81
2023/10/11 15:12:51;;;;;;;6.50;4.10;;;;;;;;;;5073692;28;20414;-79
2023/10/11 15:15:19;;;;;;;9.13;4.53;;;;;;;;;;5073704;28;20436;-80
2023/10/11 15:17:47;;;;;;;6.67;4.03;;;;;;;;;;5072469;28;20478;-84
2023/10/11 15:20:13;;;;;;;6.53;4.73;;;;;;;;;;5074272;28;20415;-80
2023/10/11 15:22:40;;;;;;;7.07;5.17;;;;;;;;;;5074514;28;20779;-83
2023/10/11 15:25:08;;;;;;;8.27;5.10;;;;;;;;;;5073920;28;20418;-88
2023/10/11 15:27:38;;;;;;;6.77;5.17;;;;;;;;;;5073664;28;20869;-87
2023/10/11 15:30:07;;;;;;;5.90;4.50;;;;;;;;;;5072517;28;20428;-86
2023/10/11 15:32:34;;;;;;;8.10;5.20;;;;;;;;;;5071655;28;20418;-85
2023/10/11 15:35:00;;;;;;;8.87;5.40;;;;;;;;;;5073263;28;20419;-89
2023/10/11 15:37:26;;;;;;;8.27;4.63;;;;;;;;;;5071518;28;20769;-88
2023/10/11 15:39:53;;;;;;;8.07;5.33;;;;;;;;;;5072938;28;20770;-89
2023/10/11 15:42:19;;;;;;;9.10;4.70;;;;;;;;;;5071505;28;20419;-90
2023/10/11 15:44:46;;;;;;;8.47;5.57;;;;;;;;;;5072648;28;20421;-89